Time;durP1;ratioP1;P1;durP2;ratioP2;P2;SDS_P1;SDS_P2;PMS_P1;PMS_P2;Temp;Humidity;BMP_temperature;BMP_pressure;BME280_temperature;BME280_humidity;BME280_pressure;Samples;Min_cycle;Max_cycle;Signal;HPM_P1;HPM_P2
2023/01/16 09:14:32;;;;;;;1.23;0.30;;;5.90;99.90;;;;;;4917528;29;20703;-74
2023/01/16 09:16:59;;;;;;;0.40;0.13;;;6.10;99.90;;;;;;4912106;29;20216;-79
2023/01/16 09:19:26;;;;;;;1.73;0.37;;;6.20;99.90;;;;;;4914889;29;20233;-75
2023/01/16 09:21:53;;;;;;;1.07;0.30;;;6.40;99.90;;;;;;4917971;29;20210;-74
2023/01/16 09:24:20;;;;;;;0.70;0.20;;;6.50;99.90;;;;;;4917735;29;20241;-78
2023/01/16 09:26:47;;;;;;;0.47;0.20;;;6.50;99.90;;;;;;4917834;29;20252;-75
2023/01/16 09:29:14;;;;;;;0.80;0.40;;;6.40;99.90;;;;;;4918647;29;20228;-79
2023/01/16 09:31:42;;;;;;;1.40;0.37;;;6.50;99.90;;;;;;4918714;29;20210;-73
2023/01/16 09:34:09;;;;;;;0.30;0.20;;;6.50;99.90;;;;;;4918836;29;20206;-73
2023/01/16 09:36:35;;;;;;;0.40;0.20;;;6.60;99.90;;;;;;4918774;29;20210;-72
2023/01/16 09:39:02;;;;;;;0.70;0.30;;;6.60;99.90;;;;;;4918611;29;20230;-72
2023/01/16 09:44:17;;;;;;;0.53;0.20;;;6.90;99.90;;;;;;4919002;29;20599;-72
2023/01/16 09:46:52;;;;;;;0.37;0.10;;;7.00;99.90;;;;;;4919055;29;20210;-73
2023/01/16 09:49:23;;;;;;;0.30;0.20;;;6.90;99.90;;;;;;4918953;29;20229;-73
2023/01/16 10:00:22;;;;;;;0.40;0.20;;;7.00;99.90;;;;;;4918714;29;20233;-72
2023/01/16 10:02:51;;;;;;;0.30;0.10;;;7.00;99.90;;;;;;4918845;29;20301;-74
2023/01/16 10:05:18;;;;;;;1.07;0.30;;;7.00;99.90;;;;;;4918606;29;20248;-72
2023/01/16 10:07:52;;;;;;;0.37;0.10;;;6.90;99.90;;;;;;4918336;29;20261;-74
2023/01/16 10:10:43;;;;;;;0.87;0.20;;;6.80;99.90;;;;;;4917750;29;20230;-75
2023/01/16 10:13:24;;;;;;;1.27;0.20;;;7.00;99.90;;;;;;4918013;29;20222;-72
2023/01/16 10:16:03;;;;;;;0.30;0.20;;;7.00;99.90;;;;;;4918118;29;20279;-72
2023/01/16 10:18:41;;;;;;;0.57;0.20;;;7.00;99.90;;;;;;4918498;29;20229;-72
2023/01/16 10:21:36;;;;;;;1.17;0.30;;;7.00;99.90;;;;;;4918296;29;20214;-75
2023/01/16 10:24:11;;;;;;;0.20;0.10;;;6.90;99.90;;;;;;4917180;29;20723;-75
2023/01/16 10:26:49;;;;;;;0.43;0.10;;;6.80;99.90;;;;;;4918193;29;20209;-75
2023/01/16 10:29:23;;;;;;;0.77;0.10;;;6.80;99.90;;;;;;4917911;29;20240;-75
2023/01/16 10:31:58;;;;;;;0.60;0.20;;;6.80;99.90;;;;;;4918092;29;20210;-75
2023/01/16 10:34:31;;;;;;;0.40;0.13;;;6.90;99.90;;;;;;4918138;29;20217;-74
2023/01/16 10:37:00;;;;;;;0.40;0.10;;;7.00;99.90;;;;;;4917892;29;20221;-75
2023/01/16 10:39:32;;;;;;;0.30;0.10;;;7.00;99.90;;;;;;4917942;29;20232;-73
2023/01/16 10:50:31;;;;;;;0.83;0.20;;;6.80;99.90;;;;;;4917504;29;20229;-74
2023/01/16 10:52:57;;;;;;;0.50;0.10;;;6.70;99.90;;;;;;4918067;29;20210;-74
2023/01/16 10:55:25;;;;;;;0.40;0.20;;;6.60;99.90;;;;;;4917756;29;20569;-74
2023/01/16 10:57:55;;;;;;;1.70;0.10;;;6.50;99.90;;;;;;4917453;29;20213;-74
2023/01/16 11:00:28;;;;;;;0.30;0.13;;;6.50;99.90;;;;;;4917483;29;20236;-74
2023/01/16 11:02:58;;;;;;;2.23;0.30;;;6.60;99.90;;;;;;4917518;29;20209;-73
2023/01/16 11:05:29;;;;;;;0.50;0.20;;;6.60;99.90;;;;;;4917538;29;20237;-74
2023/01/16 11:08:06;;;;;;;0.30;0.13;;;6.60;99.90;;;;;;4917648;29;20260;-74
2023/01/16 11:10:32;;;;;;;0.43;0.20;;;6.60;99.90;;;;;;4917807;29;20270;-74
2023/01/16 11:18:44;;;;;;;0.33;0.17;;;6.70;99.90;;;;;;4917478;29;20361;-75
2023/01/16 11:21:16;;;;;;;1.10;0.20;;;6.70;99.90;;;;;;4917414;29;20217;-74
2023/01/16 11:23:48;;;;;;;0.63;0.20;;;6.80;99.90;;;;;;4917137;29;20711;-74
2023/01/16 11:26:16;;;;;;;3.67;1.50;;;6.70;99.90;;;;;;4917154;29;20224;-74
2023/01/16 11:28:47;;;;;;;0.70;0.40;;;6.70;99.90;;;;;;4917201;29;20233;-74
2023/01/16 11:31:19;;;;;;;1.90;0.30;;;6.70;99.90;;;;;;4917208;29;20221;-74
2023/01/16 11:33:49;;;;;;;0.60;0.20;;;6.70;99.90;;;;;;4917420;29;20214;-74
2023/01/16 11:36:18;;;;;;;1.27;0.20;;;6.70;99.90;;;;;;4917185;29;20296;-74
2023/01/16 11:38:48;;;;;;;0.20;0.10;;;6.70;99.90;;;;;;4916717;29;20236;-74
2023/01/16 11:41:19;;;;;;;1.13;0.20;;;6.80;99.90;;;;;;4916778;29;20302;-74
2023/01/16 11:46:50;;;;;;;0.40;0.30;;;7.00;99.90;;;;;;4917087;29;20212;-74
2023/01/16 11:49:20;;;;;;;3.13;0.30;;;7.00;99.90;;;;;;4916635;29;20225;-75
2023/01/16 11:51:52;;;;;;;0.40;0.20;;;7.00;99.90;;;;;;4916694;29;20269;-74
2023/01/16 11:54:27;;;;;;;1.00;0.33;;;7.00;99.90;;;;;;4917238;29;20217;-74
2023/01/16 11:57:21;;;;;;;2.57;0.20;;;6.80;99.90;;;;;;4916968;29;20213;-74
2023/01/16 12:00:12;;;;;;;0.60;0.10;;;6.80;99.90;;;;;;4908394;29;20234;-73
2023/01/16 12:03:33;;;;;;;0.50;0.20;;;6.70;99.90;;;;;;4917132;29;20572;-74
2023/01/16 12:06:12;;;;;;;0.50;0.20;;;6.70;99.90;;;;;;4868570;29;20213;-74
2023/01/16 12:08:58;;;;;;;0.20;0.10;;;6.60;99.90;;;;;;4916499;29;20345;-74
2023/01/16 12:11:58;;;;;;;0.33;0.10;;;6.60;99.90;;;;;;4916618;29;20217;-74
2023/01/16 12:14:33;;;;;;;0.70;0.20;;;6.50;99.90;;;;;;4914868;29;20217;-74
2023/01/16 12:17:23;;;;;;;0.60;0.40;;;6.50;99.90;;;;;;4916706;29;20217;-74
2023/01/16 12:20:11;;;;;;;0.60;0.20;;;6.50;99.90;;;;;;4916516;29;20281;-74
2023/01/16 12:22:56;;;;;;;0.30;0.20;;;6.50;99.90;;;;;;4916632;29;20220;-74
2023/01/16 12:25:33;;;;;;;0.30;0.10;;;6.40;99.90;;;;;;4916469;29;20243;-74
2023/01/16 12:28:11;;;;;;;0.50;0.20;;;6.50;99.90;;;;;;4916685;29;20296;-74
2023/01/16 12:31:06;;;;;;;0.20;0.10;;;6.50;99.90;;;;;;4916463;29;20205;-74
2023/01/16 12:33:41;;;;;;;0.47;0.27;;;6.60;99.90;;;;;;4919580;29;20213;-74
2023/01/16 12:36:12;;;;;;;2.17;0.30;;;6.80;99.90;;;;;;4920479;29;20215;-74
2023/01/16 12:38:49;;;;;;;0.50;0.20;;;6.70;99.90;;;;;;4920027;29;20233;-74
2023/01/16 12:44:28;;;;;;;0.43;0.10;;;6.90;99.90;;;;;;4911164;29;20592;-74
2023/01/16 12:47:17;;;;;;;0.67;0.37;;;7.10;99.90;;;;;;4920077;29;20218;-74
2023/01/16 12:49:56;;;;;;;0.20;0.10;;;7.10;99.90;;;;;;4919993;29;20229;-74
2023/01/16 12:52:41;;;;;;;0.50;0.37;;;7.20;99.90;;;;;;4919972;29;20214;-74
2023/01/16 12:55:22;;;;;;;2.17;0.23;;;7.00;99.90;;;;;;4920269;29;20209;-74
2023/01/16 12:58:02;;;;;;;0.40;0.27;;;7.00;99.90;;;;;;4920707;29;20210;-74
2023/01/16 13:00:33;;;;;;;0.60;0.30;;;7.00;99.90;;;;;;4919905;29;20251;-74
2023/01/16 13:03:11;;;;;;;1.33;0.40;;;6.90;99.90;;;;;;4920137;29;20210;-74
2023/01/16 13:05:39;;;;;;;0.77;0.40;;;6.90;99.90;;;;;;4919878;29;20237;-76
2023/01/16 13:08:15;;;;;;;0.60;0.30;;;6.80;99.90;;;;;;4919760;29;20225;-75
2023/01/16 13:13:33;;;;;;;1.20;0.30;;;6.60;99.90;;;;;;4919520;29;20209;-74
2023/01/16 13:16:05;;;;;;;0.70;0.30;;;6.60;99.90;;;;;;4919452;29;20220;-73
2023/01/16 13:18:40;;;;;;;0.90;0.30;;;6.70;99.90;;;;;;4919674;29;20585;-74
2023/01/16 13:21:14;;;;;;;0.97;0.20;;;6.70;99.90;;;;;;4919768;29;20215;-74
2023/01/16 13:23:45;;;;;;;1.07;0.30;;;6.80;99.90;;;;;;4919498;29;20668;-74
2023/01/16 13:26:15;;;;;;;0.53;0.40;;;6.80;99.90;;;;;;4919565;29;20574;-74
2023/01/16 13:28:47;;;;;;;0.80;0.20;;;6.90;99.90;;;;;;4919270;29;20233;-75
2023/01/16 13:31:22;;;;;;;0.20;0.10;;;6.90;99.90;;;;;;4919394;29;20218;-74
2023/01/16 13:33:56;;;;;;;0.67;0.37;;;7.00;99.90;;;;;;4919176;29;20213;-75
2023/01/16 13:36:50;;;;;;;1.57;0.60;;;7.20;99.90;;;;;;4919590;29;20268;-73
2023/01/16 13:39:51;;;;;;;0.77;0.40;;;7.40;99.90;;;;;;4919029;29;20232;-73
2023/01/16 13:42:20;;;;;;;0.93;0.30;;;7.40;99.90;;;;;;4919024;29;20210;-73
2023/01/16 13:47:38;;;;;;;0.87;0.40;;;7.30;99.90;;;;;;4919341;29;20212;-73
2023/01/16 13:50:15;;;;;;;0.43;0.30;;;7.20;99.90;;;;;;4919381;29;20333;-73
2023/01/16 13:52:43;;;;;;;1.07;0.50;;;7.30;99.90;;;;;;4919062;29;20300;-73
2023/01/16 13:55:24;;;;;;;0.90;0.60;;;7.40;99.90;;;;;;4919006;29;20656;-73
2023/01/16 13:57:54;;;;;;;0.57;0.30;;;7.20;99.90;;;;;;4918715;29;20569;-74
2023/01/16 14:00:22;;;;;;;0.50;0.30;;;7.20;99.90;;;;;;4918702;29;20236;-73
2023/01/16 14:03:03;;;;;;;0.93;0.37;;;7.20;99.90;;;;;;4918724;29;20209;-73
2023/01/16 14:05:49;;;;;;;2.23;0.33;;;7.10;99.90;;;;;;4918530;29;20237;-73
2023/01/16 14:09:07;;;;;;;0.30;0.20;;;7.00;99.90;;;;;;4918816;29;20215;-73
2023/01/16 14:11:40;;;;;;;0.60;0.40;;;7.00;99.90;;;;;;4918376;29;20266;-73
2023/01/16 14:17:15;;;;;;;0.50;0.30;;;6.90;99.90;;;;;;4918493;29;20217;-73
2023/01/16 14:19:52;;;;;;;1.00;0.50;;;7.00;99.90;;;;;;4918411;29;20229;-73
2023/01/16 14:25:17;;;;;;;3.03;0.30;;;7.10;99.90;;;;;;4918636;29;20276;-73
2023/01/16 14:27:48;;;;;;;0.33;0.20;;;7.10;99.90;;;;;;4918372;29;20216;-73
2023/01/16 14:30:19;;;;;;;1.00;0.50;;;7.10;99.90;;;;;;4917977;29;20239;-73
2023/01/16 14:32:48;;;;;;;0.90;0.60;;;7.00;99.90;;;;;;4918348;29;20217;-74
2023/01/16 14:35:18;;;;;;;0.87;0.43;;;7.10;99.90;;;;;;4918130;29;20216;-73
2023/01/16 14:37:55;;;;;;;0.77;0.60;;;7.00;99.90;;;;;;4918195;29;20236;-73
2023/01/16 14:55:13;;;;;;;1.60;0.70;;;6.90;99.90;;;;;;4917918;29;20233;-74
2023/01/16 14:55:48;;;;;;;0.70;0.50;;;6.60;99.90;;;;;;4917429;29;20292;-74
2023/01/16 14:58:20;;;;;;;0.47;0.40;;;6.50;99.90;;;;;;4917806;29;20241;-75
2023/01/16 15:00:49;;;;;;;2.50;0.70;;;6.40;99.90;;;;;;4917833;29;20210;-72
2023/01/16 15:03:23;;;;;;;1.10;0.50;;;6.20;99.90;;;;;;4917588;29;20576;-73
2023/01/16 15:05:53;;;;;;;3.90;0.60;;;6.10;99.90;;;;;;4917687;29;20570;-74
2023/01/16 15:08:24;;;;;;;0.50;0.50;;;6.10;99.90;;;;;;4918082;29;20672;-72
2023/01/16 15:10:52;;;;;;;0.70;0.60;;;6.10;99.90;;;;;;4917244;29;20217;-73
2023/01/16 15:13:23;;;;;;;0.87;0.67;;;6.20;99.90;;;;;;4916935;29;20224;-73
2023/01/16 15:15:52;;;;;;;1.17;0.70;;;6.00;99.90;;;;;;4916767;29;20673;-72
2023/01/16 15:23:57;;;;;;;0.90;0.60;;;6.10;99.90;;;;;;4917377;29;20241;-74
2023/01/16 15:26:43;;;;;;;2.03;1.00;;;6.10;99.90;;;;;;4917283;29;20244;-72
2023/01/16 15:29:19;;;;;;;1.30;0.80;;;6.10;99.90;;;;;;4917089;29;20255;-72
2023/01/16 15:31:56;;;;;;;1.80;1.00;;;6.20;99.90;;;;;;4917297;29;20219;-72
2023/01/16 15:34:27;;;;;;;1.17;0.97;;;6.10;99.90;;;;;;4917333;29;20304;-75
2023/01/16 15:36:56;;;;;;;2.50;1.10;;;6.10;99.90;;;;;;4917173;29;20237;-74
2023/01/16 15:39:28;;;;;;;1.57;0.87;;;6.10;99.90;;;;;;4917164;29;20265;-72
2023/01/16 15:48:03;;;;;;;1.03;0.90;;;5.90;99.90;;;;;;4916946;29;20565;-75
2023/01/16 15:50:39;;;;;;;2.03;0.80;;;5.70;99.90;;;;;;4916778;29;20624;-75
2023/01/16 15:53:06;;;;;;;1.97;1.10;;;5.70;99.90;;;;;;4916985;29;20680;-75
2023/01/16 15:55:40;;;;;;;1.70;1.13;;;5.60;99.90;;;;;;4916796;29;20210;-75
2023/01/16 15:58:14;;;;;;;1.97;1.23;;;5.50;99.90;;;;;;4916965;29;20239;-75
2023/01/16 16:00:41;;;;;;;3.03;1.47;;;5.50;99.90;;;;;;4916567;29;20213;-72
2023/01/16 16:03:13;;;;;;;3.17;0.87;;;5.40;99.90;;;;;;4916377;29;20205;-72
2023/01/16 16:05:43;;;;;;;1.37;1.00;;;5.30;99.90;;;;;;4916258;29;20328;-75
2023/01/16 16:08:15;;;;;;;2.20;1.47;;;5.20;99.90;;;;;;4915728;29;20206;-72
2023/01/16 16:13:30;;;;;;;1.80;1.30;;;5.20;99.90;;;;;;4907278;29;20217;-73
2023/01/16 16:18:58;;;;;;;3.43;1.87;;;5.20;99.90;;;;;;4916922;29;20228;-73
2023/01/16 16:21:27;;;;;;;2.07;0.90;;;5.10;99.90;;;;;;4916873;29;20246;-73
2023/01/16 16:23:57;;;;;;;1.67;1.20;;;5.10;99.90;;;;;;4916815;29;20213;-73
2023/01/16 16:26:26;;;;;;;1.97;1.20;;;5.10;99.90;;;;;;4916458;29;20241;-73
2023/01/16 16:28:54;;;;;;;1.33;0.77;;;5.00;99.90;;;;;;4916296;29;20240;-73
2023/01/16 16:31:24;;;;;;;3.27;0.80;;;5.00;99.90;;;;;;4916720;29;20622;-73
2023/01/16 16:33:57;;;;;;;0.57;0.50;;;5.10;99.90;;;;;;4916858;29;20206;-73
2023/01/16 16:36:24;;;;;;;1.47;0.70;;;5.00;99.90;;;;;;4916480;29;20217;-73
2023/01/16 16:38:53;;;;;;;3.03;0.70;;;5.00;99.90;;;;;;4916347;29;20705;-73
2023/01/16 16:44:42;;;;;;;1.43;0.67;;;5.00;99.90;;;;;;4916136;29;20671;-73
2023/01/16 16:47:26;;;;;;;0.70;0.50;;;5.00;99.90;;;;;;4916199;29;20233;-74
2023/01/16 16:49:53;;;;;;;0.67;0.60;;;5.00;99.90;;;;;;4916021;29;20236;-73
2023/01/16 16:52:40;;;;;;;0.90;0.43;;;5.00;99.90;;;;;;4916349;29;20210;-74
2023/01/16 16:55:29;;;;;;;3.30;0.70;;;5.10;99.90;;;;;;4916052;29;20210;-74
2023/01/16 16:57:59;;;;;;;2.43;0.77;;;5.10;99.90;;;;;;4915934;29;20218;-74
2023/01/16 17:00:27;;;;;;;1.70;0.60;;;5.20;99.90;;;;;;4916218;29;20697;-74
2023/01/16 17:03:01;;;;;;;1.90;0.57;;;5.20;99.90;;;;;;4916314;29;20571;-74
2023/01/16 17:05:28;;;;;;;0.60;0.47;;;5.30;99.90;;;;;;4916345;29;20244;-74
2023/01/16 17:07:57;;;;;;;2.43;0.80;;;5.20;99.90;;;;;;4916157;29;20216;-74
2023/01/16 17:10:24;;;;;;;0.40;0.30;;;5.20;99.90;;;;;;4915839;29;20230;-74
2023/01/16 17:12:50;;;;;;;1.20;0.40;;;5.20;99.90;;;;;;4915786;29;20245;-74
2023/01/16 17:15:18;;;;;;;1.90;0.40;;;5.10;99.90;;;;;;4915892;29;20673;-74
2023/01/16 17:17:46;;;;;;;20.90;7.10;;;5.00;99.90;;;;;;4916232;29;20216;-74
2023/01/16 17:20:17;;;;;;;1.83;1.20;;;5.00;99.90;;;;;;4919465;29;20709;-73
2023/01/16 17:22:44;;;;;;;1.13;0.57;;;5.10;99.90;;;;;;4919613;29;20210;-74
2023/01/16 17:25:18;;;;;;;0.90;0.63;;;5.10;99.90;;;;;;4919009;29;20214;-74
2023/01/16 17:27:45;;;;;;;1.67;1.00;;;5.10;99.90;;;;;;4919411;29;20218;-73
2023/01/16 17:30:13;;;;;;;2.60;0.70;;;5.10;99.90;;;;;;4919328;29;20236;-73
2023/01/16 17:32:42;;;;;;;5.50;1.27;;;5.10;99.90;;;;;;4919259;29;20206;-73
2023/01/16 17:35:14;;;;;;;3.00;0.90;;;5.20;99.90;;;;;;4919245;29;20214;-73
2023/01/16 17:37:41;;;;;;;3.70;0.93;;;5.20;99.90;;;;;;4918885;29;20554;-73
2023/01/16 17:40:10;;;;;;;2.63;0.70;;;5.20;99.90;;;;;;4919167;29;20225;-74
2023/01/16 17:48:16;;;;;;;2.23;0.73;;;5.20;99.90;;;;;;4919006;29;20236;-73
2023/01/16 17:50:43;;;;;;;1.83;1.23;;;5.20;99.90;;;;;;4918847;29;20669;-73
2023/01/16 17:53:13;;;;;;;1.53;0.80;;;5.10;99.90;;;;;;4919163;29;20245;-73
2023/01/16 17:55:52;;;;;;;1.43;0.80;;;5.10;99.90;;;;;;4919109;29;20281;-73
2023/01/16 17:58:23;;;;;;;1.20;0.80;;;5.00;99.90;;;;;;4918540;29;20747;-73
2023/01/16 18:00:51;;;;;;;0.70;0.50;;;4.80;99.90;;;;;;4918689;29;20304;-75
2023/01/16 18:03:20;;;;;;;0.90;0.60;;;4.80;99.90;;;;;;4918491;29;20568;-73
2023/01/16 18:05:46;;;;;;;1.17;0.77;;;4.70;99.90;;;;;;4918399;29;20729;-74
2023/01/16 18:08:14;;;;;;;1.20;0.60;;;4.50;99.90;;;;;;4918530;29;20205;-73
2023/01/16 18:10:41;;;;;;;1.97;0.90;;;4.50;99.90;;;;;;4918402;29;20269;-73
2023/01/16 18:18:39;;;;;;;0.70;0.60;;;4.40;99.90;;;;;;4918398;29;20228;-73
2023/01/16 18:23:58;;;;;;;1.17;0.60;;;4.30;99.90;;;;;;4918644;29;20212;-73
2023/01/16 18:26:26;;;;;;;0.90;0.60;;;4.30;99.90;;;;;;4918362;29;20239;-73
2023/01/16 18:28:53;;;;;;;0.77;0.63;;;4.30;99.90;;;;;;4918282;29;20232;-73
2023/01/16 18:31:20;;;;;;;1.20;0.83;;;4.20;99.90;;;;;;4917666;29;20265;-73
2023/01/16 18:33:51;;;;;;;1.73;1.00;;;4.10;99.90;;;;;;4918099;29;20241;-73
2023/01/16 18:36:18;;;;;;;3.93;1.13;;;4.20;99.90;;;;;;4918198;29;20217;-73
2023/01/16 19:03:30;;;;;;;4.03;2.27;;;4.40;99.90;;;;;;4917772;29;20227;-73
2023/01/16 19:05:59;;;;;;;10.63;4.47;;;4.30;99.90;;;;;;4917559;29;20705;-73
2023/01/16 19:08:27;;;;;;;11.33;3.50;;;4.40;99.90;;;;;;4917388;29;20233;-73
2023/01/16 19:10:58;;;;;;;5.87;2.50;;;4.40;99.90;;;;;;4917350;29;20304;-73
2023/01/16 19:13:36;;;;;;;6.43;2.37;;;4.50;99.90;;;;;;4917059;29;20304;-74
2023/01/16 19:18:49;;;;;;;5.20;1.83;;;4.50;99.90;;;;;;4915721;29;20312;-73
2023/01/16 19:21:17;;;;;;;2.37;1.13;;;4.60;99.90;;;;;;4909904;29;20212;-74
2023/01/16 19:23:44;;;;;;;4.80;0.90;;;4.60;99.90;;;;;;4896841;29;20207;-74
2023/01/16 19:26:11;;;;;;;10.10;2.00;;;4.60;99.90;;;;;;4912908;29;20612;-73
2023/01/16 19:28:38;;;;;;;2.93;1.33;;;4.60;99.90;;;;;;4914455;29;20240;-76
2023/01/16 19:31:05;;;;;;;5.47;1.37;;;4.60;99.90;;;;;;4912633;29;20676;-73
2023/01/16 19:33:33;;;;;;;8.90;2.00;;;4.60;99.90;;;;;;4908379;29;20209;-74
2023/01/16 19:36:00;;;;;;;7.37;1.33;;;4.60;99.90;;;;;;4911914;29;20579;-74
2023/01/16 19:38:28;;;;;;;6.30;1.20;;;4.60;99.90;;;;;;4915460;29;20233;-76
2023/01/16 19:41:01;;;;;;;2.63;1.00;;;4.60;99.90;;;;;;4915698;29;20695;-74
2023/01/16 19:48:57;;;;;;;2.63;1.00;;;4.60;99.90;;;;;;4915769;29;20616;-73
2023/01/16 19:51:24;;;;;;;2.03;0.80;;;4.60;99.90;;;;;;4915486;29;20214;-72
2023/01/16 19:53:53;;;;;;;3.27;1.07;;;4.60;99.90;;;;;;4915498;29;20222;-75
2023/01/16 19:56:21;;;;;;;1.53;0.87;;;4.60;99.90;;;;;;4917001;29;20217;-73
2023/01/16 19:58:47;;;;;;;3.40;1.03;;;4.60;99.90;;;;;;4906286;29;20237;-75
2023/01/16 20:01:15;;;;;;;4.10;1.00;;;4.60;99.90;;;;;;4908671;29;20222;-73
2023/01/16 20:03:45;;;;;;;2.70;1.10;;;4.60;99.90;;;;;;4911229;29;20218;-73
2023/01/16 20:06:12;;;;;;;5.43;1.40;;;4.60;99.90;;;;;;4901211;29;20297;-75
2023/01/16 20:08:39;;;;;;;5.17;1.33;;;4.60;99.90;;;;;;4905496;29;20234;-72
2023/01/16 20:11:07;;;;;;;2.57;1.00;;;4.50;99.90;;;;;;4911516;29;20605;-73
2023/01/16 20:13:34;;;;;;;2.97;1.00;;;4.50;99.90;;;;;;4909614;29;20222;-72
2023/01/16 20:16:03;;;;;;;6.53;1.10;;;4.50;99.90;;;;;;4910586;29;20704;-75
2023/01/16 20:18:30;;;;;;;4.07;1.07;;;4.50;99.90;;;;;;4901317;29;20217;-73
2023/01/16 20:20:59;;;;;;;2.10;1.23;;;4.50;99.90;;;;;;4905113;29;20210;-72
2023/01/16 20:23:31;;;;;;;5.27;1.23;;;4.50;99.90;;;;;;4910115;29;20236;-72
2023/01/16 20:26:01;;;;;;;4.50;1.00;;;4.30;99.90;;;;;;4909914;29;20289;-73
2023/01/16 20:28:29;;;;;;;0.80;0.40;;;4.30;99.90;;;;;;4910392;29;20585;-73
2023/01/16 20:30:58;;;;;;;5.40;0.83;;;4.20;99.90;;;;;;4914044;29;20217;-73
2023/01/16 20:33:27;;;;;;;3.50;0.73;;;4.10;99.90;;;;;;4913589;29;20214;-73
2023/01/16 20:36:00;;;;;;;8.43;1.20;;;4.10;99.90;;;;;;4913578;29;20214;-73
2023/01/16 20:38:27;;;;;;;1.67;0.80;;;4.00;99.90;;;;;;4904670;29;20241;-73
2023/01/16 20:40:53;;;;;;;5.20;1.00;;;4.00;99.90;;;;;;4909706;29;20297;-73
2023/01/16 20:46:06;;;;;;;3.60;1.10;;;4.00;99.90;;;;;;4912473;29;20236;-72
2023/01/16 20:48:33;;;;;;;3.77;1.30;;;4.10;99.90;;;;;;4897766;29;20234;-73
2023/01/16 20:51:04;;;;;;;5.07;1.10;;;4.10;99.90;;;;;;4912791;29;20205;-73
2023/01/16 20:53:30;;;;;;;4.97;1.00;;;4.20;99.90;;;;;;4904923;29;20202;-73
2023/01/16 20:55:57;;;;;;;2.27;1.00;;;4.20;99.90;;;;;;4910520;29;20215;-75
2023/01/16 20:58:24;;;;;;;4.30;1.00;;;4.30;99.90;;;;;;4910400;29;20213;-72
2023/01/16 21:00:58;;;;;;;3.57;1.73;;;4.20;99.90;;;;;;4907104;29;20669;-72
2023/01/16 21:03:26;;;;;;;2.10;0.73;;;4.20;99.90;;;;;;4909200;29;20233;-73
2023/01/16 21:05:53;;;;;;;4.40;0.80;;;4.20;99.90;;;;;;4903039;29;20218;-72
2023/01/16 21:08:21;;;;;;;4.03;1.87;;;4.20;99.90;;;;;;4908737;29;20244;-73
2023/01/16 21:10:48;;;;;;;1.90;1.00;;;4.30;99.90;;;;;;4908540;29;20240;-72
2023/01/16 21:24:09;;;;;;;3.60;1.20;;;4.60;99.90;;;;;;4912750;29;20252;-72
2023/01/16 21:26:39;;;;;;;6.03;0.77;;;4.50;99.90;;;;;;4914095;29;20244;-74
2023/01/16 21:29:06;;;;;;;3.33;0.70;;;4.40;99.90;;;;;;4911745;29;20246;-74
2023/01/16 21:31:33;;;;;;;2.90;0.60;;;4.40;99.90;;;;;;4911776;29;20628;-72
2023/01/16 21:34:01;;;;;;;4.57;0.63;;;4.40;99.90;;;;;;4914238;29;20224;-72
2023/01/16 21:36:28;;;;;;;6.67;1.03;;;4.30;99.90;;;;;;4917239;29;20209;-73
2023/01/16 21:38:55;;;;;;;6.57;1.13;;;4.30;99.90;;;;;;4902813;29;20235;-72
2023/01/16 21:41:22;;;;;;;2.83;0.70;;;4.20;99.90;;;;;;4910264;29;20206;-72
2023/01/16 21:46:33;;;;;;;1.27;0.40;;;4.20;99.90;;;;;;4913055;29;20704;-72
2023/01/16 21:49:02;;;;;;;1.23;0.60;;;4.20;99.90;;;;;;4907710;29;20230;-73
2023/01/16 21:51:30;;;;;;;3.50;0.63;;;4.20;99.90;;;;;;4915008;29;20206;-72
2023/01/16 21:53:57;;;;;;;3.23;0.60;;;4.20;99.90;;;;;;4901493;29;20217;-75
2023/01/16 21:56:24;;;;;;;1.50;0.47;;;4.20;99.90;;;;;;4912802;29;20210;-73
2023/01/16 21:58:52;;;;;;;3.13;0.40;;;4.30;99.90;;;;;;4913322;29;20230;-72
2023/01/16 22:01:19;;;;;;;1.60;0.80;;;4.30;99.90;;;;;;4909582;29;20290;-73
2023/01/16 22:03:46;;;;;;;1.60;0.70;;;4.40;99.90;;;;;;4913825;29;20214;-73
2023/01/16 22:06:14;;;;;;;0.93;0.57;;;4.40;99.90;;;;;;4911795;29;20220;-74
2023/01/16 22:08:41;;;;;;;2.80;0.70;;;4.40;99.90;;;;;;4913976;29;20239;-73
2023/01/16 22:19:29;;;;;;;6.87;0.90;;;4.10;99.90;;;;;;4912242;29;20300;-74
2023/01/16 22:21:58;;;;;;;2.63;0.93;;;3.90;99.90;;;;;;4918056;29;20728;-73
2023/01/16 22:24:26;;;;;;;6.87;1.10;;;3.90;99.90;;;;;;4911327;29;20210;-73
2023/01/16 22:26:53;;;;;;;7.30;1.40;;;3.90;99.90;;;;;;4915585;29;20247;-73
2023/01/16 22:29:20;;;;;;;2.30;0.90;;;3.80;99.90;;;;;;4909480;29;20234;-73
2023/01/16 22:31:49;;;;;;;6.13;1.10;;;3.80;99.90;;;;;;4914419;29;20565;-73
2023/01/16 22:34:16;;;;;;;1.03;0.60;;;3.80;99.90;;;;;;4906180;29;20202;-74
2023/01/16 22:36:45;;;;;;;2.17;0.70;;;3.70;99.90;;;;;;4915623;29;20214;-73
2023/01/16 22:39:14;;;;;;;2.47;0.57;;;3.70;99.90;;;;;;4903752;29;20316;-73
2023/01/16 22:41:41;;;;;;;7.57;0.60;;;3.50;99.90;;;;;;4915664;29;20212;-73
2023/01/16 22:46:53;;;;;;;4.83;0.53;;;3.50;99.90;;;;;;4903299;29;20241;-73
2023/01/16 22:49:20;;;;;;;3.37;0.80;;;3.40;99.90;;;;;;4908272;29;20728;-73
2023/01/16 22:51:47;;;;;;;1.77;0.50;;;3.50;99.90;;;;;;4913084;29;20210;-73
2023/01/16 22:54:15;;;;;;;2.47;0.67;;;3.50;99.90;;;;;;4916195;29;20210;-74
2023/01/16 22:56:42;;;;;;;3.10;0.80;;;3.40;99.90;;;;;;4911041;29;20212;-73
2023/01/16 22:59:09;;;;;;;2.87;0.70;;;3.40;99.90;;;;;;4907723;29;20709;-73
2023/01/16 23:01:36;;;;;;;4.03;0.70;;;3.40;99.90;;;;;;4917425;29;20589;-73
2023/01/16 23:04:03;;;;;;;1.10;0.77;;;3.30;99.90;;;;;;4917308;29;20216;-73
